sensor_id;sensor_type;location;lat;lon;timestamp;temperature;humidity
17307;DHT22;8771;48.048;7.682;2022-08-18T00:01:14;20.70;58.20
17307;DHT22;8771;48.048;7.682;2022-08-18T00:06:18;20.80;58.30
17307;DHT22;8771;48.048;7.682;2022-08-18T00:11:21;20.80;58.80
17307;DHT22;8771;48.048;7.682;2022-08-18T00:16:23;20.80;58.20
17307;DHT22;8771;48.048;7.682;2022-08-18T00:21:26;20.80;58.30
17307;DHT22;8771;48.048;7.682;2022-08-18T00:26:29;20.80;58.20
17307;DHT22;8771;48.048;7.682;2022-08-18T00:31:31;20.80;58.30
17307;DHT22;8771;48.048;7.682;2022-08-18T00:36:34;20.70;58.30
17307;DHT22;8771;48.048;7.682;2022-08-18T00:41:36;20.60;58.40
17307;DHT22;8771;48.048;7.682;2022-08-18T00:46:38;20.60;58.40
17307;DHT22;8771;48.048;7.682;2022-08-18T00:51:46;20.60;58.50
17307;DHT22;8771;48.048;7.682;2022-08-18T00:56:52;20.60;58.50
17307;DHT22;8771;48.048;7.682;2022-08-18T01:01:57;20.60;58.50
17307;DHT22;8771;48.048;7.682;2022-08-18T01:07:06;20.60;58.50
17307;DHT22;8771;48.048;7.682;2022-08-18T01:12:10;20.50;58.50
17307;DHT22;8771;48.048;7.682;2022-08-18T01:17:13;20.50;58.70
17307;DHT22;8771;48.048;7.682;2022-08-18T01:27:45;20.30;58.90
17307;DHT22;8771;48.048;7.682;2022-08-18T01:32:47;20.20;59.10
17307;DHT22;8771;48.048;7.682;2022-08-18T01:37:52;20.10;59.10
17307;DHT22;8771;48.048;7.682;2022-08-18T01:42:56;20.10;59.20
17307;DHT22;8771;48.048;7.682;2022-08-18T01:47:58;19.90;59.30
17307;DHT22;8771;48.048;7.682;2022-08-18T01:53:01;19.90;59.40
17307;DHT22;8771;48.048;7.682;2022-08-18T01:58:06;19.90;59.40
17307;DHT22;8771;48.048;7.682;2022-08-18T02:03:11;19.90;59.30
17307;DHT22;8771;48.048;7.682;2022-08-18T02:08:14;19.90;59.30
17307;DHT22;8771;48.048;7.682;2022-08-18T02:13:17;19.90;59.20
17307;DHT22;8771;48.048;7.682;2022-08-18T02:18:21;19.90;59.20
17307;DHT22;8771;48.048;7.682;2022-08-18T02:23:24;20.00;59.20
17307;DHT22;8771;48.048;7.682;2022-08-18T02:28:27;20.00;59.20
17307;DHT22;8771;48.048;7.682;2022-08-18T02:33:29;20.00;59.20
17307;DHT22;8771;48.048;7.682;2022-08-18T02:38:32;20.00;59.20
17307;DHT22;8771;48.048;7.682;2022-08-18T02:43:37;20.00;59.20
17307;DHT22;8771;48.048;7.682;2022-08-18T02:48:39;20.00;59.20
17307;DHT22;8771;48.048;7.682;2022-08-18T02:53:43;20.00;59.20
17307;DHT22;8771;48.048;7.682;2022-08-18T02:58:48;20.00;59.20
17307;DHT22;8771;48.048;7.682;2022-08-18T03:03:51;20.00;59.20
17307;DHT22;8771;48.048;7.682;2022-08-18T03:08:53;20.00;59.20
17307;DHT22;8771;48.048;7.682;2022-08-18T03:13:57;20.10;59.20
17307;DHT22;8771;48.048;7.682;2022-08-18T03:19:00;20.10;59.20
17307;DHT22;8771;48.048;7.682;2022-08-18T03:24:03;20.10;59.20
17307;DHT22;8771;48.048;7.682;2022-08-18T03:29:07;20.00;59.20
17307;DHT22;8771;48.048;7.682;2022-08-18T03:34:11;20.10;59.40
17307;DHT22;8771;48.048;7.682;2022-08-18T03:39:13;20.00;59.30
17307;DHT22;8771;48.048;7.682;2022-08-18T03:44:16;20.00;59.40
17307;DHT22;8771;48.048;7.682;2022-08-18T03:49:19;19.90;59.50
17307;DHT22;8771;48.048;7.682;2022-08-18T03:54:21;19.80;59.70
17307;DHT22;8771;48.048;7.682;2022-08-18T03:59:26;19.70;59.70
17307;DHT22;8771;48.048;7.682;2022-08-18T04:04:30;19.80;59.70
17307;DHT22;8771;48.048;7.682;2022-08-18T04:09:34;19.70;59.70
17307;DHT22;8771;48.048;7.682;2022-08-18T04:14:40;19.80;59.70
17307;DHT22;8771;48.048;7.682;2022-08-18T04:19:43;19.80;59.80
17307;DHT22;8771;48.048;7.682;2022-08-18T04:24:45;19.70;59.80
17307;DHT22;8771;48.048;7.682;2022-08-18T04:29:49;19.70;59.90
17307;DHT22;8771;48.048;7.682;2022-08-18T04:34:51;19.60;59.80
17307;DHT22;8771;48.048;7.682;2022-08-18T04:39:53;19.50;60.00
17307;DHT22;8771;48.048;7.682;2022-08-18T04:44:56;19.40;60.20
17307;DHT22;8771;48.048;7.682;2022-08-18T04:49:58;19.40;60.30
17307;DHT22;8771;48.048;7.682;2022-08-18T04:55:00;19.30;60.30
17307;DHT22;8771;48.048;7.682;2022-08-18T05:00:06;19.40;60.30
17307;DHT22;8771;48.048;7.682;2022-08-18T05:05:08;19.40;60.30
17307;DHT22;8771;48.048;7.682;2022-08-18T05:10:11;19.30;60.30
17307;DHT22;8771;48.048;7.682;2022-08-18T05:15:14;19.40;60.30
17307;DHT22;8771;48.048;7.682;2022-08-18T05:20:18;19.40;60.30
17307;DHT22;8771;48.048;7.682;2022-08-18T05:25:20;19.50;60.30
17307;DHT22;8771;48.048;7.682;2022-08-18T05:30:23;19.40;60.20
17307;DHT22;8771;48.048;7.682;2022-08-18T05:35:31;19.40;60.30
17307;DHT22;8771;48.048;7.682;2022-08-18T05:40:35;19.40;60.30
17307;DHT22;8771;48.048;7.682;2022-08-18T05:45:40;19.40;60.30
17307;DHT22;8771;48.048;7.682;2022-08-18T05:50:42;19.50;60.40
17307;DHT22;8771;48.048;7.682;2022-08-18T05:55:55;19.50;60.30
17307;DHT22;8771;48.048;7.682;2022-08-18T06:01:22;19.60;60.10
17307;DHT22;8771;48.048;7.682;2022-08-18T06:06:27;19.70;60.00
17307;DHT22;8771;48.048;7.682;2022-08-18T06:11:31;19.70;60.00
17307;DHT22;8771;48.048;7.682;2022-08-18T06:16:45;19.80;60.00
17307;DHT22;8771;48.048;7.682;2022-08-18T06:21:57;19.80;60.00
17307;DHT22;8771;48.048;7.682;2022-08-18T06:27:03;19.80;60.00
17307;DHT22;8771;48.048;7.682;2022-08-18T06:32:17;19.90;60.00
17307;DHT22;8771;48.048;7.682;2022-08-18T06:37:29;20.00;60.00
17307;DHT22;8771;48.048;7.682;2022-08-18T06:42:33;19.90;60.00
17307;DHT22;8771;48.048;7.682;2022-08-18T06:47:42;20.00;60.00
17307;DHT22;8771;48.048;7.682;2022-08-18T06:52:52;20.00;60.00
17307;DHT22;8771;48.048;7.682;2022-08-18T06:57:56;20.00;60.00
17307;DHT22;8771;48.048;7.682;2022-08-18T07:03:05;20.10;60.00
17307;DHT22;8771;48.048;7.682;2022-08-18T07:08:12;20.10;59.90
17307;DHT22;8771;48.048;7.682;2022-08-18T07:13:22;20.20;60.00
17307;DHT22;8771;48.048;7.682;2022-08-18T07:18:27;20.20;60.00
17307;DHT22;8771;48.048;7.682;2022-08-18T07:23:32;20.30;60.00
17307;DHT22;8771;48.048;7.682;2022-08-18T07:28:37;20.30;59.90
17307;DHT22;8771;48.048;7.682;2022-08-18T07:33:41;20.40;59.90
17307;DHT22;8771;48.048;7.682;2022-08-18T07:38:50;20.40;59.90
17307;DHT22;8771;48.048;7.682;2022-08-18T07:44:02;20.50;59.90
17307;DHT22;8771;48.048;7.682;2022-08-18T07:49:07;20.60;59.80
17307;DHT22;8771;48.048;7.682;2022-08-18T07:54:14;20.70;59.90
17307;DHT22;8771;48.048;7.682;2022-08-18T07:59:23;20.70;59.80
17307;DHT22;8771;48.048;7.682;2022-08-18T08:04:35;20.70;59.80
17307;DHT22;8771;48.048;7.682;2022-08-18T08:09:47;20.70;59.90
17307;DHT22;8771;48.048;7.682;2022-08-18T08:14:57;20.70;59.90
17307;DHT22;8771;48.048;7.682;2022-08-18T08:20:21;20.70;60.00
17307;DHT22;8771;48.048;7.682;2022-08-18T08:25:29;20.70;60.10
17307;DHT22;8771;48.048;7.682;2022-08-18T08:30:39;20.50;60.20
17307;DHT22;8771;48.048;7.682;2022-08-18T08:35:50;20.60;60.40
17307;DHT22;8771;48.048;7.682;2022-08-18T08:40:59;20.70;60.20
17307;DHT22;8771;48.048;7.682;2022-08-18T08:46:07;20.80;60.00
17307;DHT22;8771;48.048;7.682;2022-08-18T08:51:27;20.90;60.00
17307;DHT22;8771;48.048;7.682;2022-08-18T08:56:33;21.00;59.90
17307;DHT22;8771;48.048;7.682;2022-08-18T09:01:41;21.10;59.80
17307;DHT22;8771;48.048;7.682;2022-08-18T09:06:51;21.10;59.80
17307;DHT22;8771;48.048;7.682;2022-08-18T09:12:31;21.20;59.80
17307;DHT22;8771;48.048;7.682;2022-08-18T09:17:52;21.20;59.80
17307;DHT22;8771;48.048;7.682;2022-08-18T09:23:02;21.30;59.80
17307;DHT22;8771;48.048;7.682;2022-08-18T09:28:08;21.20;59.90
17307;DHT22;8771;48.048;7.682;2022-08-18T09:33:27;21.20;60.00
17307;DHT22;8771;48.048;7.682;2022-08-18T09:38:36;21.10;60.10
17307;DHT22;8771;48.048;7.682;2022-08-18T09:44:00;21.10;60.10
17307;DHT22;8771;48.048;7.682;2022-08-18T09:49:30;21.20;60.10
17307;DHT22;8771;48.048;7.682;2022-08-18T09:54:51;21.30;60.00
17307;DHT22;8771;48.048;7.682;2022-08-18T10:05:26;21.50;59.80
17307;DHT22;8771;48.048;7.682;2022-08-18T10:10:34;21.60;59.70
17307;DHT22;8771;48.048;7.682;2022-08-18T10:15:55;21.70;59.70
17307;DHT22;8771;48.048;7.682;2022-08-18T10:21:08;21.80;59.60
17307;DHT22;8771;48.048;7.682;2022-08-18T10:32:17;22.10;59.40
17307;DHT22;8771;48.048;7.682;2022-08-18T10:37:25;22.30;59.30
17307;DHT22;8771;48.048;7.682;2022-08-18T10:42:32;22.60;59.00
17307;DHT22;8771;48.048;7.682;2022-08-18T10:47:37;22.70;59.00
17307;DHT22;8771;48.048;7.682;2022-08-18T10:52:53;22.60;59.00
17307;DHT22;8771;48.048;7.682;2022-08-18T10:58:29;22.70;59.10
17307;DHT22;8771;48.048;7.682;2022-08-18T11:04:00;22.70;59.20
17307;DHT22;8771;48.048;7.682;2022-08-18T11:09:03;22.80;59.10
17307;DHT22;8771;48.048;7.682;2022-08-18T11:14:21;23.00;59.00
17307;DHT22;8771;48.048;7.682;2022-08-18T11:19:28;23.10;58.90
17307;DHT22;8771;48.048;7.682;2022-08-18T11:24:43;23.40;58.70
17307;DHT22;8771;48.048;7.682;2022-08-18T11:29:45;23.60;58.50
17307;DHT22;8771;48.048;7.682;2022-08-18T11:34:52;23.90;58.20
17307;DHT22;8771;48.048;7.682;2022-08-18T11:39:56;24.00;58.10
17307;DHT22;8771;48.048;7.682;2022-08-18T11:45:06;24.20;58.10
17307;DHT22;8771;48.048;7.682;2022-08-18T11:50:25;24.40;58.00
17307;DHT22;8771;48.048;7.682;2022-08-18T11:55:30;24.50;57.80
17307;DHT22;8771;48.048;7.682;2022-08-18T12:00:51;24.50;58.00
17307;DHT22;8771;48.048;7.682;2022-08-18T12:05:56;24.60;58.00
17307;DHT22;8771;48.048;7.682;2022-08-18T12:11:04;24.60;58.00
17307;DHT22;8771;48.048;7.682;2022-08-18T12:16:10;24.60;58.10
17307;DHT22;8771;48.048;7.682;2022-08-18T12:21:14;24.60;58.20
17307;DHT22;8771;48.048;7.682;2022-08-18T12:26:16;24.60;58.20
17307;DHT22;8771;48.048;7.682;2022-08-18T12:31:18;24.80;58.00
17307;DHT22;8771;48.048;7.682;2022-08-18T12:36:22;25.10;57.80
17307;DHT22;8771;48.048;7.682;2022-08-18T12:41:24;25.30;57.50
17307;DHT22;8771;48.048;7.682;2022-08-18T12:46:26;25.50;57.50
17307;DHT22;8771;48.048;7.682;2022-08-18T12:51:29;25.40;57.50
17307;DHT22;8771;48.048;7.682;2022-08-18T12:56:32;25.20;57.90
17307;DHT22;8771;48.048;7.682;2022-08-18T13:01:35;25.00;58.10
17307;DHT22;8771;48.048;7.682;2022-08-18T13:06:43;24.80;58.30
17307;DHT22;8771;48.048;7.682;2022-08-18T13:11:45;24.70;58.50
17307;DHT22;8771;48.048;7.682;2022-08-18T13:16:47;24.50;58.70
17307;DHT22;8771;48.048;7.682;2022-08-18T13:21:52;24.40;58.80
17307;DHT22;8771;48.048;7.682;2022-08-18T13:26:54;24.30;58.80
17307;DHT22;8771;48.048;7.682;2022-08-18T13:31:56;24.30;58.70
17307;DHT22;8771;48.048;7.682;2022-08-18T13:37:00;24.50;58.50
17307;DHT22;8771;48.048;7.682;2022-08-18T13:42:02;24.70;58.30
17307;DHT22;8771;48.048;7.682;2022-08-18T13:47:04;24.80;58.00
17307;DHT22;8771;48.048;7.682;2022-08-18T13:52:10;24.80;58.10
17307;DHT22;8771;48.048;7.682;2022-08-18T13:57:13;24.70;58.20
17307;DHT22;8771;48.048;7.682;2022-08-18T14:02:15;24.70;58.30
17307;DHT22;8771;48.048;7.682;2022-08-18T14:07:18;24.60;58.40
17307;DHT22;8771;48.048;7.682;2022-08-18T14:12:22;24.50;58.50
17307;DHT22;8771;48.048;7.682;2022-08-18T14:17:24;24.60;58.40
17307;DHT22;8771;48.048;7.682;2022-08-18T14:22:28;24.80;58.20
17307;DHT22;8771;48.048;7.682;2022-08-18T14:27:47;24.90;58.00
17307;DHT22;8771;48.048;7.682;2022-08-18T14:32:49;25.00;57.90
17307;DHT22;8771;48.048;7.682;2022-08-18T14:37:54;25.10;57.80
17307;DHT22;8771;48.048;7.682;2022-08-18T14:42:56;25.10;57.90
17307;DHT22;8771;48.048;7.682;2022-08-18T14:47:58;25.20;57.90
17307;DHT22;8771;48.048;7.682;2022-08-18T14:53:01;25.30;57.80
17307;DHT22;8771;48.048;7.682;2022-08-18T14:58:03;25.40;57.80
17307;DHT22;8771;48.048;7.682;2022-08-18T15:03:06;25.40;57.80
17307;DHT22;8771;48.048;7.682;2022-08-18T15:08:09;25.40;57.80
17307;DHT22;8771;48.048;7.682;2022-08-18T15:13:11;25.50;57.90
17307;DHT22;8771;48.048;7.682;2022-08-18T15:18:14;25.50;58.00
17307;DHT22;8771;48.048;7.682;2022-08-18T15:23:17;25.50;57.90
17307;DHT22;8771;48.048;7.682;2022-08-18T15:28:37;25.60;58.00
17307;DHT22;8771;48.048;7.682;2022-08-18T15:33:39;25.60;57.90
17307;DHT22;8771;48.048;7.682;2022-08-18T15:38:43;25.60;58.00
17307;DHT22;8771;48.048;7.682;2022-08-18T15:43:45;25.60;58.00
17307;DHT22;8771;48.048;7.682;2022-08-18T15:48:47;25.70;57.90
17307;DHT22;8771;48.048;7.682;2022-08-18T15:53:50;25.70;57.90
17307;DHT22;8771;48.048;7.682;2022-08-18T15:58:53;25.60;58.00
17307;DHT22;8771;48.048;7.682;2022-08-18T16:03:55;25.60;58.10
17307;DHT22;8771;48.048;7.682;2022-08-18T16:09:00;25.60;58.20
17307;DHT22;8771;48.048;7.682;2022-08-18T16:14:02;25.60;58.20
17307;DHT22;8771;48.048;7.682;2022-08-18T16:19:05;25.50;58.20
17307;DHT22;8771;48.048;7.682;2022-08-18T16:24:08;25.50;58.20
17307;DHT22;8771;48.048;7.682;2022-08-18T16:29:10;25.50;58.20
17307;DHT22;8771;48.048;7.682;2022-08-18T16:34:12;25.40;58.30
17307;DHT22;8771;48.048;7.682;2022-08-18T16:39:16;25.30;58.40
17307;DHT22;8771;48.048;7.682;2022-08-18T16:44:18;25.30;58.50
17307;DHT22;8771;48.048;7.682;2022-08-18T16:49:20;25.20;58.50
17307;DHT22;8771;48.048;7.682;2022-08-18T16:54:23;25.20;58.50
17307;DHT22;8771;48.048;7.682;2022-08-18T16:59:25;25.20;58.50
17307;DHT22;8771;48.048;7.682;2022-08-18T17:04:45;25.20;58.60
17307;DHT22;8771;48.048;7.682;2022-08-18T17:09:50;25.10;58.50
17307;DHT22;8771;48.048;7.682;2022-08-18T17:14:53;25.00;58.60
17307;DHT22;8771;48.048;7.682;2022-08-18T17:19:55;25.00;58.70
17307;DHT22;8771;48.048;7.682;2022-08-18T17:25:00;24.90;58.70
17307;DHT22;8771;48.048;7.682;2022-08-18T17:30:06;24.90;58.80
17307;DHT22;8771;48.048;7.682;2022-08-18T17:35:14;24.80;58.80
17307;DHT22;8771;48.048;7.682;2022-08-18T17:40:22;24.80;58.90
17307;DHT22;8771;48.048;7.682;2022-08-18T17:45:28;24.70;58.90
17307;DHT22;8771;48.048;7.682;2022-08-18T17:50:35;24.60;59.00
17307;DHT22;8771;48.048;7.682;2022-08-18T17:56:04;24.50;59.00
17307;DHT22;8771;48.048;7.682;2022-08-18T18:01:08;24.50;59.20
17307;DHT22;8771;48.048;7.682;2022-08-18T18:06:20;24.40;59.30
17307;DHT22;8771;48.048;7.682;2022-08-18T18:11:32;24.30;59.50
17307;DHT22;8771;48.048;7.682;2022-08-18T18:16:34;24.20;59.60
17307;DHT22;8771;48.048;7.682;2022-08-18T18:21:37;24.10;59.80
17307;DHT22;8771;48.048;7.682;2022-08-18T18:26:44;24.00;59.80
17307;DHT22;8771;48.048;7.682;2022-08-18T18:31:56;23.90;59.90
17307;DHT22;8771;48.048;7.682;2022-08-18T18:37:01;23.80;59.90
17307;DHT22;8771;48.048;7.682;2022-08-18T18:42:24;23.70;60.00
17307;DHT22;8771;48.048;7.682;2022-08-18T18:47:40;23.70;60.00
17307;DHT22;8771;48.048;7.682;2022-08-18T18:52:57;23.60;60.00
17307;DHT22;8771;48.048;7.682;2022-08-18T18:58:10;23.50;60.10
17307;DHT22;8771;48.048;7.682;2022-08-18T19:03:18;23.50;60.20
17307;DHT22;8771;48.048;7.682;2022-08-18T19:08:29;23.50;60.20
17307;DHT22;8771;48.048;7.682;2022-08-18T19:13:42;23.50;60.30
17307;DHT22;8771;48.048;7.682;2022-08-18T19:18:50;23.40;60.30
17307;DHT22;8771;48.048;7.682;2022-08-18T19:23:57;23.40;60.50
17307;DHT22;8771;48.048;7.682;2022-08-18T19:29:07;23.30;60.50
17307;DHT22;8771;48.048;7.682;2022-08-18T19:34:14;23.20;60.60
17307;DHT22;8771;48.048;7.682;2022-08-18T19:39:24;23.20;60.70
17307;DHT22;8771;48.048;7.682;2022-08-18T19:44:36;23.00;60.90
17307;DHT22;8771;48.048;7.682;2022-08-18T19:49:48;22.90;61.00
17307;DHT22;8771;48.048;7.682;2022-08-18T19:54:59;22.80;61.20
17307;DHT22;8771;48.048;7.682;2022-08-18T20:00:14;22.70;61.30
17307;DHT22;8771;48.048;7.682;2022-08-18T20:05:36;22.70;61.30
17307;DHT22;8771;48.048;7.682;2022-08-18T20:11:17;22.60;61.20
17307;DHT22;8771;48.048;7.682;2022-08-18T20:16:30;22.60;61.30
17307;DHT22;8771;48.048;7.682;2022-08-18T20:21:44;22.50;61.40
17307;DHT22;8771;48.048;7.682;2022-08-18T20:33:09;22.50;61.50
17307;DHT22;8771;48.048;7.682;2022-08-18T20:38:17;22.40;61.40
17307;DHT22;8771;48.048;7.682;2022-08-18T20:43:27;22.30;61.60
17307;DHT22;8771;48.048;7.682;2022-08-18T20:48:49;22.10;61.80
17307;DHT22;8771;48.048;7.682;2022-08-18T20:54:03;22.10;62.00
17307;DHT22;8771;48.048;7.682;2022-08-18T20:59:09;22.00;62.00
17307;DHT22;8771;48.048;7.682;2022-08-18T21:04:14;21.90;62.10
17307;DHT22;8771;48.048;7.682;2022-08-18T21:09:17;21.90;62.20
17307;DHT22;8771;48.048;7.682;2022-08-18T21:14:23;21.90;62.30
17307;DHT22;8771;48.048;7.682;2022-08-18T21:19:28;21.80;62.40
17307;DHT22;8771;48.048;7.682;2022-08-18T21:24:35;21.70;63.40
17307;DHT22;8771;48.048;7.682;2022-08-18T21:29:40;21.60;62.60
17307;DHT22;8771;48.048;7.682;2022-08-18T21:34:47;21.60;62.60
17307;DHT22;8771;48.048;7.682;2022-08-18T21:39:51;21.60;62.60
17307;DHT22;8771;48.048;7.682;2022-08-18T21:44:55;21.60;62.60
17307;DHT22;8771;48.048;7.682;2022-08-18T21:50:06;21.60;62.60
17307;DHT22;8771;48.048;7.682;2022-08-18T21:55:16;21.60;62.60
17307;DHT22;8771;48.048;7.682;2022-08-18T22:00:24;21.70;62.60
17307;DHT22;8771;48.048;7.682;2022-08-18T22:05:31;21.70;62.50
17307;DHT22;8771;48.048;7.682;2022-08-18T22:10:33;21.70;62.50
17307;DHT22;8771;48.048;7.682;2022-08-18T22:15:53;21.70;62.50
17307;DHT22;8771;48.048;7.682;2022-08-18T22:20:59;21.70;62.40
17307;DHT22;8771;48.048;7.682;2022-08-18T22:26:06;21.70;62.40
17307;DHT22;8771;48.048;7.682;2022-08-18T22:31:09;21.70;62.50
17307;DHT22;8771;48.048;7.682;2022-08-18T22:36:17;21.70;62.50
17307;DHT22;8771;48.048;7.682;2022-08-18T22:41:21;21.80;62.50
17307;DHT22;8771;48.048;7.682;2022-08-18T22:46:23;21.80;63.40
17307;DHT22;8771;48.048;7.682;2022-08-18T22:51:27;21.80;62.60
17307;DHT22;8771;48.048;7.682;2022-08-18T22:56:32;21.80;62.60
17307;DHT22;8771;48.048;7.682;2022-08-18T23:01:34;21.80;62.60
17307;DHT22;8771;48.048;7.682;2022-08-18T23:06:38;21.80;62.80
17307;DHT22;8771;48.048;7.682;2022-08-18T23:11:40;21.80;62.80
17307;DHT22;8771;48.048;7.682;2022-08-18T23:16:42;21.70;62.60
17307;DHT22;8771;48.048;7.682;2022-08-18T23:21:46;21.80;62.70
17307;DHT22;8771;48.048;7.682;2022-08-18T23:26:50;21.80;62.80
17307;DHT22;8771;48.048;7.682;2022-08-18T23:31:52;21.80;62.70
17307;DHT22;8771;48.048;7.682;2022-08-18T23:36:58;21.70;62.70
17307;DHT22;8771;48.048;7.682;2022-08-18T23:42:02;21.70;62.80
17307;DHT22;8771;48.048;7.682;2022-08-18T23:47:04;21.70;62.80
17307;DHT22;8771;48.048;7.682;2022-08-18T23:52:08;21.70;62.90
17307;DHT22;8771;48.048;7.682;2022-08-18T23:57:10;21.70;62.90
